Kirkwood, Delaware
Current Conditions -  °F | °C
As of 1:51 AM on Wednesday 26 Nov 2014 (Local Time) from KILG Reporting Station
Overcast Overcast  
Wind Chill: 42°   Ceiling: 9000
Heat Index: 44°   Visibility: 10mi
Dew Point: 37°   Wind: 5mph
Humidity: 76%   Direction: 320°NW
Pressure: 30.19"   Gusts: NA
Location:  39.57°N, 75.7°W
Report Text: KILG 260651Z 32004KT 10SM BKN090 OVC110 07/03 A3019 RMK AO2 SLP224 T00670028
Loading
Personal Weather Stations






























Interactive Weather Map New forecast layout! Learn more

10-Day Weather Forecast

Advertisements
Track Severe Weather on mobile